Have a Safe July 4th! 

Flight Track Log - Related Links

Times and Time Zones

All times are in EDT time to prevent confusion due to time zone crossing. See the ASQ4633 flight status page for this flight to view local times or setup timezone preferences in your user account.

Time Position Orientation Groundspeed Altitude Reporting Facility
EDT Latitude Longitude Course Direction KTS MPH feet Rate Location/Type
Mon 02:11:29 PM 40.7167 -74.1500 27° Northeast 165 190 2,300  Level New York TRACON
Mon 02:13:39 PM 40.8033 -74.0303 46° Northeast 196 226 5,800 1,958 Climbing Boston Center
Mon 02:14:00 PM 40.9797 -73.8370 37° Northeast  Level FlightAware Approximate
Mon 02:14:39 PM 40.8086 -73.9400 86° East 209 241 8,500  Level Boston Center
Mon 02:15:00 PM 41.0573 -73.7523 40° Northeast  Level FlightAware Approximate
Mon 02:15:39 PM 40.8244 -73.8444 78° East 240 276 10,000  Level Boston Center
Mon 02:16:00 PM 41.1340 -73.6662 27° Northeast  Level FlightAware Approximate
Mon 02:16:39 PM 40.8983 -73.7664 39° Northeast 292 336 11,500  Level Boston Center
Mon 02:17:39 PM 40.9844 -73.7022 29° Northeast 311 358 13,600 1,900 Climbing Boston Center
Mon 02:18:39 PM 41.0686 -73.6350 31° Northeast 342 394 15,300 1,550 Climbing Boston Center
Mon 02:19:39 PM 41.1464 -73.5758 30° Northeast 357 411 16,700 1,250 Climbing Boston Center
Mon 02:20:39 PM 41.2472 -73.4975 30° Northeast 364 419 17,800 1,350 Climbing Boston Center
Mon 02:21:39 PM 41.3475 -73.4519 19° North 369 425 19,400 1,450 Climbing Boston Center
Mon 02:22:39 PM 41.4539 -73.4483 North 369 425 20,700 800 Climbing Boston Center
Mon 02:23:39 PM 41.5622 -73.4417 North 375 432 21,000 150 Climbing Boston Center
Mon 02:24:39 PM 41.6811 -73.4325 North 397 457 21,000  Level Boston Center
Mon 02:25:39 PM 41.8022 -73.4258 North 421 484 21,000  Level Boston Center
Mon 02:26:39 PM 41.9189 -73.4194 North 421 484 21,000 -150 Level Boston Center
Mon 02:27:39 PM 42.0378 -73.4100 North 421 484 20,700 -550 Descending Boston Center
Mon 02:28:39 PM 42.1483 -73.3978 North 427 491 19,900 -1,250 Descending Boston Center
Mon 02:29:39 PM 42.2756 -73.3969 360° North 421 484 18,200 -950 Descending Boston Center
Mon 02:30:39 PM 42.3903 -73.3875 North 421 484 18,000 -100 Descending Boston Center
Mon 02:31:39 PM 42.4925 -73.3806 North 416 479 18,000  Level Boston Center
Mon 02:32:39 PM 42.6197 -73.3711 North 411 473 18,000 150 Level Boston Center
Mon 02:33:39 PM 42.7239 -73.3642 North 411 473 18,300 -350 Climbing Boston Center
Mon 02:34:39 PM 42.8489 -73.3547 North 411 473 17,300 -650 Descending Boston Center
Mon 02:35:39 PM 42.9492 -73.3478 North 405 466 17,000 -150 Descending Boston Center
Mon 02:36:39 PM 43.0722 -73.3353 North 405 466 17,000  Level Boston Center
Mon 02:37:39 PM 43.1703 -73.3253 North 400 460 17,000 -300 Level Boston Center
Mon 02:38:39 PM 43.2869 -73.3128 North 393 452 16,400 -900 Descending Boston Center
Mon 02:39:39 PM 43.3808 -73.3000 North 378 435 15,200 -1,400 Descending Boston Center
Mon 02:40:39 PM 43.4975 -73.2872 North 373 429 13,600 -1,450 Descending Boston Center
Mon 02:41:39 PM 43.6039 -73.2772 North 373 429 12,300 -1,100 Descending Boston Center
Mon 02:42:39 PM 43.7083 -73.2644 North 373 429 11,400 -650 Descending Boston Center
Mon 02:43:39 PM 43.8125 -73.2542 North 378 435 11,000 -200 Descending Boston Center
Mon 02:44:39 PM 43.9169 -73.2414 North 373 429 11,000 -100 Level Boston Center
Mon 02:45:39 PM 44.0128 -73.2425 360° North 357 411 10,800 -950 Descending Boston Center
Mon 02:46:39 PM 44.0981 -73.2525 355° North 326 375 9,100 -1,700 Descending Boston Center
Mon 02:47:39 PM 44.1772 -73.2650 354° North 297 342 7,400 -1,700 Descending Boston Center
Mon 02:48:39 PM 44.2542 -73.2747 355° North 285 328 5,700 -1,500 Descending Boston Center
Mon 02:49:39 PM 44.3289 -73.2903 352° North 275 316 4,400 -1,150 Descending Boston Center
Mon 02:50:39 PM 44.3997 -73.2972 356° North 270 311 3,400 -1,000 Descending Boston Center

Login

Don't have an account? Register now (free) for customized features, flight alerts, and more!